Impacts TAF Board INFO
FOR SITUATIONAL AWARENESS. NOT TO BE USED FOR FLIGHT PLANNING PURPOSES.
IDs:

KMCO - Orlando Intl, FL, US

Issued at 1844 UTC 21 Jun 2018
Updated at 1946 UTC 21 Jun 2018
Potential Impact None Slight Moderate High
Time<<22/20Z 22/21Z 22/22Z 22/23Z 23/00Z 23/01Z 23/02Z 23/03Z 23/04Z 23/05Z 23/06Z 23/07Z 23/08Z
Type PRVL PRVL PRVL PRVL
VIS >6 >6 >6 >6
CIG -- -- -- --
Cover SCT SCT SCT SCT
FltCat VFR VFR VFR VFR
WX -- -- -- --
WDir 270 270 270 270
WSpd 4 4 4 4
WGst -- -- -- --

Raw TAF
KMCO 211844Z 2119/2224 32010KT P6SM SHRA SCT015 SCT040 BKN080
  TEMPO 2119/2122 5SM TSRA BKN035CB OVC080
  FM220000 27005KT P6SM SCT040 BKN120
  FM220600 27004KT P6SM SCT250


METAR Board
Radar Display
Forecast Discussion

FOR SITUATIONAL AWARENESS. NOT TO BE USED FOR FLIGHT PLANNING PURPOSES.